createdAt,value
2022-11-15T00:01:27.695Z,30.76
2022-11-15T00:02:48.167Z,29.06
2022-11-15T00:04:08.845Z,32.23
2022-11-15T00:05:29.284Z,29.40
2022-11-15T00:06:49.740Z,31.29
2022-11-15T00:08:10.875Z,29.82
2022-11-15T00:09:31.475Z,30.69
2022-11-15T00:11:00.273Z,31.46
2022-11-15T00:12:20.922Z,30.00
2022-11-15T00:13:41.823Z,29.89
2022-11-15T00:15:02.214Z,31.64
2022-11-15T00:16:23.049Z,32.22
2022-11-15T00:17:43.244Z,30.89
2022-11-15T00:19:03.778Z,31.16
2022-11-15T00:20:24.236Z,30.73
2022-11-15T00:21:44.566Z,30.48
2022-11-15T00:23:05.875Z,28.85
2022-11-15T00:24:26.265Z,28.45
2022-11-15T00:25:46.561Z,27.68
2022-11-15T00:27:08.149Z,26.83
2022-11-15T00:28:28.741Z,29.73
2022-11-15T00:29:49.106Z,28.81
2022-11-15T00:31:14.488Z,29.33
2022-11-15T00:32:35.027Z,28.33
2022-11-15T00:33:55.189Z,28.50
2022-11-15T00:35:15.759Z,30.22
2022-11-15T00:36:35.913Z,29.79
2022-11-15T00:37:56.235Z,30.64
2022-11-15T00:39:16.597Z,28.10
2022-11-15T00:40:37.142Z,27.97
2022-11-15T00:41:57.676Z,26.33
2022-11-15T00:43:18.159Z,27.93
2022-11-15T00:44:38.655Z,26.32
2022-11-15T00:45:59.384Z,27.71
2022-11-15T00:47:19.487Z,28.29
2022-11-15T00:48:39.689Z,28.48
2022-11-15T00:50:00.049Z,26.36
2022-11-15T00:51:20.669Z,27.89
2022-11-15T00:52:41.298Z,27.58
2022-11-15T00:54:01.826Z,27.09
2022-11-15T00:55:22.094Z,26.31
2022-11-15T00:56:42.603Z,25.12
2022-11-15T00:58:03.178Z,27.21
2022-11-15T00:59:24.134Z,26.51
2022-11-15T01:00:44.561Z,27.88
2022-11-15T01:02:05.052Z,25.80
2022-11-15T01:03:25.706Z,26.63
2022-11-15T01:04:46.223Z,27.18
2022-11-15T01:06:07.712Z,26.80
2022-11-15T01:07:28.235Z,26.39
2022-11-15T01:08:48.890Z,26.41
2022-11-15T01:10:10.139Z,25.42
2022-11-15T01:11:30.279Z,27.54
2022-11-15T01:12:50.936Z,26.92
2022-11-15T01:14:12.252Z,26.26
2022-11-15T01:15:32.748Z,27.44
2022-11-15T01:16:53.293Z,27.48
2022-11-15T01:18:13.702Z,28.17
2022-11-15T01:19:34.256Z,26.22
2022-11-15T01:20:54.660Z,27.88
2022-11-15T01:22:15.266Z,28.25
2022-11-15T01:23:36.310Z,28.76
2022-11-15T01:24:56.903Z,27.62
2022-11-15T01:26:17.391Z,27.44
2022-11-15T01:27:37.846Z,27.26
2022-11-15T01:28:58.202Z,26.89
2022-11-15T01:30:18.675Z,27.54
2022-11-15T01:31:39.182Z,28.38
2022-11-15T01:32:59.526Z,26.57
2022-11-15T01:34:19.814Z,27.15
2022-11-15T01:35:41.364Z,27.52
2022-11-15T01:37:02.296Z,28.15
2022-11-15T01:38:23.643Z,27.95
2022-11-15T01:39:44.303Z,28.21
2022-11-15T01:41:05.260Z,27.41
2022-11-15T01:42:25.850Z,27.16
2022-11-15T01:43:50.118Z,26.26
2022-11-15T01:45:16.282Z,28.18
2022-11-15T01:46:39.589Z,28.00
2022-11-15T01:48:00.258Z,26.59
2022-11-15T01:49:23.526Z,28.16
2022-11-15T01:50:43.731Z,27.55
2022-11-15T01:52:10.025Z,25.88
2022-11-15T01:53:33.235Z,28.26
2022-11-15T01:55:02.840Z,27.83
2022-11-15T01:56:28.828Z,26.97
2022-11-15T01:57:56.135Z,27.48
2022-11-15T01:59:16.958Z,27.64
2022-11-15T02:00:37.543Z,28.75
2022-11-15T02:01:58.237Z,28.16
2022-11-15T02:03:18.924Z,27.96
2022-11-15T02:04:44.560Z,28.50
2022-11-15T02:06:06.536Z,26.37
2022-11-15T02:07:29.430Z,27.42
2022-11-15T02:08:51.796Z,26.96
2022-11-15T02:10:18.272Z,26.35
2022-11-15T02:11:38.853Z,25.88
2022-11-15T02:13:02.938Z,26.65
2022-11-15T02:14:28.796Z,26.87
2022-11-15T02:16:14.570Z,26.85
2022-11-15T02:17:37.686Z,25.16
2022-11-15T02:19:30.463Z,26.69
2022-11-15T02:21:28.097Z,26.51
2022-11-15T02:29:44.166Z,23.55
2022-11-15T02:31:16.107Z,25.98
2022-11-15T02:32:47.523Z,26.66
2022-11-15T02:34:36.355Z,25.94
2022-11-15T02:36:15.959Z,25.80
2022-11-15T02:37:52.192Z,24.90
2022-11-15T02:39:29.538Z,27.60
2022-11-15T02:41:09.622Z,26.92
2022-11-15T02:42:55.395Z,25.54
2022-11-15T02:44:27.874Z,25.70
2022-11-15T02:45:57.361Z,26.30
2022-11-15T02:47:19.670Z,25.29
2022-11-15T02:48:41.801Z,26.11
2022-11-15T02:50:11.927Z,24.43
2022-11-15T02:51:34.552Z,24.70
2022-11-15T02:53:25.138Z,25.59
2022-11-15T02:54:58.258Z,25.06
2022-11-15T02:56:18.843Z,24.83
2022-11-15T02:58:17.291Z,26.46
2022-11-15T03:00:08.997Z,25.58
2022-11-15T03:01:59.687Z,25.79
2022-11-15T03:04:02.771Z,24.62
2022-11-15T03:05:45.339Z,24.87
2022-11-15T03:07:19.976Z,24.90
2022-11-15T03:08:55.964Z,24.46
2022-11-15T03:10:31.789Z,24.62
2022-11-15T03:12:02.334Z,24.40
2022-11-15T03:13:39.139Z,23.99
2022-11-15T03:15:10.341Z,23.49
2022-11-15T03:17:00.752Z,24.18
2022-11-15T03:18:35.247Z,25.71
2022-11-15T03:20:00.044Z,24.29
2022-11-15T03:21:23.102Z,25.78
2022-11-15T03:22:47.918Z,24.77
2022-11-15T03:24:09.864Z,25.00
2022-11-15T03:25:35.660Z,22.49
2022-11-15T03:27:00.725Z,24.33
2022-11-15T03:28:32.903Z,24.25
2022-11-15T03:30:01.560Z,23.24
2022-11-15T03:31:50.020Z,23.74
2022-11-15T03:33:12.831Z,24.25
2022-11-15T03:34:53.244Z,22.54
2022-11-15T03:36:13.984Z,21.94
2022-11-15T03:37:50.337Z,23.43
2022-11-15T03:39:19.184Z,23.39
2022-11-15T03:40:43.827Z,23.84
2022-11-15T03:58:02.998Z,22.71
2022-11-15T03:59:23.628Z,22.25
2022-11-15T04:00:43.956Z,22.17
2022-11-15T04:02:04.321Z,23.17
2022-11-15T04:03:26.508Z,22.22
2022-11-15T04:11:24.010Z,21.82
2022-11-15T04:12:48.315Z,21.41
2022-11-15T04:14:08.775Z,21.77
2022-11-15T04:15:30.417Z,21.00
2022-11-15T04:16:50.769Z,21.40
2022-11-15T04:18:10.985Z,21.37
2022-11-15T04:26:17.451Z,21.66
2022-11-15T04:27:37.795Z,19.32
2022-11-15T04:29:16.931Z,21.00
2022-11-15T04:30:37.701Z,21.56
2022-11-15T04:31:58.001Z,21.03
2022-11-15T04:33:18.346Z,20.80
2022-11-15T04:34:39.491Z,22.26
2022-11-15T04:36:18.769Z,21.55
2022-11-15T04:37:39.635Z,21.68
2022-11-15T04:38:59.876Z,21.92
2022-11-15T04:40:20.101Z,21.96
2022-11-15T04:41:40.283Z,21.03
2022-11-15T04:43:03.908Z,22.18
2022-11-15T04:44:24.465Z,21.59
2022-11-15T04:45:44.964Z,19.83
2022-11-15T04:47:05.665Z,20.93
2022-11-15T04:48:26.109Z,19.94
2022-11-15T04:49:46.629Z,19.03
2022-11-15T04:51:07.149Z,21.94
2022-11-15T04:58:44.149Z,20.03
2022-11-15T05:00:09.727Z,20.59
2022-11-15T05:01:30.381Z,20.36
2022-11-15T05:03:09.738Z,20.71
2022-11-15T05:04:30.120Z,19.73
2022-11-15T05:05:50.622Z,21.07
2022-11-15T05:07:10.922Z,21.08
2022-11-15T05:08:31.583Z,21.28
2022-11-15T05:09:51.889Z,22.09
2022-11-15T05:11:12.698Z,20.47
2022-11-15T05:12:33.073Z,20.80
2022-11-15T05:13:53.813Z,21.24
2022-11-15T05:15:14.215Z,20.50
2022-11-15T05:16:34.434Z,21.26
2022-11-15T05:18:00.389Z,20.81
2022-11-15T05:19:20.775Z,20.79
2022-11-15T05:20:41.285Z,20.57
2022-11-15T05:22:01.602Z,21.59
2022-11-15T05:29:57.790Z,20.14
2022-11-15T05:31:18.232Z,19.35
2022-11-15T05:32:38.637Z,20.26
2022-11-15T05:34:02.434Z,19.69
2022-11-15T05:35:35.593Z,19.68
2022-11-15T05:36:56.175Z,21.94
2022-11-15T05:38:16.441Z,20.15
2022-11-15T05:39:37.014Z,20.26
2022-11-15T05:40:57.834Z,19.16
2022-11-15T05:42:18.896Z,19.24
2022-11-15T05:44:16.248Z,20.22
2022-11-15T05:45:37.702Z,20.43
2022-11-15T05:46:58.361Z,20.16
2022-11-15T05:48:19.222Z,21.18
2022-11-15T05:49:45.368Z,20.52
2022-11-15T05:51:07.723Z,20.33
2022-11-15T05:52:34.725Z,19.77
2022-11-15T05:53:59.309Z,20.75
2022-11-15T05:55:19.898Z,19.99
2022-11-15T05:56:40.510Z,20.38
2022-11-15T05:58:02.117Z,19.28
2022-11-15T05:59:22.709Z,19.28
2022-11-15T06:00:44.279Z,19.45
2022-11-15T06:02:04.554Z,20.41
2022-11-15T06:03:24.978Z,19.85
2022-11-15T06:04:45.208Z,19.70
2022-11-15T06:06:05.446Z,20.47
2022-11-15T06:07:25.784Z,20.96
2022-11-15T06:08:46.453Z,19.17
2022-11-15T06:10:07.701Z,18.90
2022-11-15T06:11:27.963Z,19.44
2022-11-15T06:12:48.043Z,19.62
2022-11-15T06:14:08.090Z,19.74
2022-11-15T06:15:29.224Z,19.01
2022-11-15T06:16:49.449Z,19.88
2022-11-15T06:18:09.703Z,20.41
2022-11-15T06:19:33.995Z,20.80
2022-11-15T06:20:54.069Z,18.23
2022-11-15T06:22:14.534Z,18.58
2022-11-15T06:23:36.330Z,19.85
2022-11-15T06:25:00.207Z,19.01
2022-11-15T06:26:23.323Z,19.60
2022-11-15T06:27:43.952Z,20.02
2022-11-15T06:29:07.189Z,19.76
2022-11-15T06:30:28.673Z,19.44
2022-11-15T06:31:49.263Z,19.99
2022-11-15T06:33:09.907Z,19.63
2022-11-15T06:34:30.511Z,20.44
2022-11-15T06:35:51.278Z,19.71
2022-11-15T06:37:11.621Z,18.74
2022-11-15T06:38:32.178Z,19.51
2022-11-15T06:39:52.329Z,18.94
2022-11-15T06:41:14.935Z,18.55
2022-11-15T06:42:35.767Z,19.29
2022-11-15T06:43:56.009Z,19.48
2022-11-15T06:45:16.419Z,20.45
2022-11-15T06:46:36.706Z,20.60
2022-11-15T06:47:57.313Z,19.83
2022-11-15T06:49:17.891Z,20.82
2022-11-15T06:50:38.324Z,21.19
2022-11-15T06:51:58.741Z,20.28
2022-11-15T06:53:19.397Z,21.89
2022-11-15T06:54:39.691Z,20.31
2022-11-15T06:56:06.004Z,20.34
2022-11-15T06:57:26.493Z,19.42
2022-11-15T06:58:46.806Z,20.21
2022-11-15T07:00:07.920Z,19.64
2022-11-15T07:01:27.985Z,20.31
2022-11-15T07:02:49.005Z,21.00
2022-11-15T07:04:09.442Z,20.27
2022-11-15T07:05:30.635Z,20.45
2022-11-15T07:06:51.107Z,19.96
2022-11-15T07:08:11.630Z,19.54
2022-11-15T07:09:32.000Z,19.02
2022-11-15T07:10:52.914Z,19.41
2022-11-15T07:12:13.675Z,18.89
2022-11-15T07:13:36.539Z,19.87
2022-11-15T07:14:57.375Z,20.61
2022-11-15T07:16:17.713Z,19.59
2022-11-15T07:17:38.042Z,18.96
2022-11-15T07:18:58.768Z,19.27
2022-11-15T07:20:19.555Z,19.44
2022-11-15T07:21:40.157Z,19.57
2022-11-15T07:23:05.387Z,19.85
2022-11-15T07:24:26.200Z,20.31
2022-11-15T07:25:46.952Z,25.21
2022-11-15T07:27:07.752Z,36.66
2022-11-15T07:28:28.346Z,24.89
2022-11-15T07:29:48.850Z,21.34
2022-11-15T07:31:09.978Z,22.15
2022-11-15T07:32:30.624Z,23.05
2022-11-15T07:33:50.905Z,22.54
2022-11-15T07:35:11.006Z,21.18
2022-11-15T07:36:31.276Z,23.71
2022-11-15T07:38:00.551Z,21.95
2022-11-15T07:39:20.960Z,20.00
2022-11-15T07:40:41.732Z,21.52
2022-11-15T07:42:20.829Z,21.42
2022-11-15T07:43:41.197Z,21.28
2022-11-15T07:45:01.482Z,22.42
2022-11-15T07:46:22.066Z,22.05
2022-11-15T07:47:47.032Z,21.99
2022-11-15T07:49:07.695Z,22.28
2022-11-15T07:50:32.174Z,22.09
2022-11-15T07:51:52.802Z,22.50
2022-11-15T07:53:13.585Z,23.45
2022-11-15T07:54:34.483Z,23.39
2022-11-15T07:55:54.964Z,21.99
2022-11-15T07:57:15.276Z,22.93
2022-11-15T07:58:35.865Z,23.04
2022-11-15T07:59:56.077Z,23.17
2022-11-15T08:01:16.830Z,23.17
2022-11-15T08:02:37.287Z,24.05
2022-11-15T08:03:57.853Z,23.09
2022-11-15T08:05:18.037Z,24.47
2022-11-15T08:06:38.773Z,22.89
2022-11-15T08:07:59.590Z,22.49
2022-11-15T08:09:19.742Z,22.11
2022-11-15T08:10:40.916Z,22.86
2022-11-15T08:12:01.426Z,22.43
2022-11-15T08:13:22.505Z,23.71
2022-11-15T08:14:42.636Z,22.88
2022-11-15T08:16:06.337Z,23.11
2022-11-15T08:17:27.145Z,22.99
2022-11-15T08:18:47.992Z,23.36
2022-11-15T08:20:09.072Z,22.71
2022-11-15T08:21:29.352Z,21.99
2022-11-15T08:22:49.577Z,21.65
2022-11-15T08:24:11.797Z,21.67
2022-11-15T08:25:34.897Z,22.67
2022-11-15T08:26:55.251Z,24.28
2022-11-15T08:28:18.221Z,23.62
2022-11-15T08:29:38.714Z,24.11
2022-11-15T08:30:58.922Z,24.93
2022-11-15T08:32:19.557Z,24.57
2022-11-15T08:33:40.169Z,24.59
2022-11-15T08:35:00.666Z,23.34
2022-11-15T08:36:21.232Z,23.77
2022-11-15T08:37:41.415Z,23.67
2022-11-15T08:39:02.221Z,24.20
2022-11-15T08:40:23.019Z,24.90
2022-11-15T08:41:43.336Z,24.30
2022-11-15T08:43:04.054Z,25.31
2022-11-15T08:44:25.140Z,24.95
2022-11-15T08:45:45.986Z,24.58
2022-11-15T08:47:06.628Z,25.89
2022-11-15T08:48:27.151Z,26.29
2022-11-15T08:49:47.573Z,26.71
2022-11-15T08:51:07.927Z,24.79
2022-11-15T08:52:28.402Z,24.58
2022-11-15T08:53:49.056Z,26.17
2022-11-15T08:55:09.516Z,27.53
2022-11-15T08:56:29.651Z,27.94
2022-11-15T08:57:50.012Z,27.24
2022-11-15T08:59:10.175Z,24.80
2022-11-15T09:00:30.400Z,24.54
2022-11-15T09:01:50.888Z,25.20
2022-11-15T09:03:11.329Z,25.08
2022-11-15T09:04:32.411Z,24.77
2022-11-15T09:05:57.636Z,26.63
2022-11-15T09:07:18.152Z,25.24
2022-11-15T09:08:48.131Z,26.30
2022-11-15T09:10:09.395Z,24.66
2022-11-15T09:11:30.769Z,24.24
2022-11-15T09:12:51.417Z,25.78
2022-11-15T09:14:15.760Z,25.60
2022-11-15T09:15:36.172Z,24.84
2022-11-15T09:16:56.818Z,24.96
2022-11-15T09:18:16.912Z,24.85
2022-11-15T09:19:38.003Z,25.01
2022-11-15T09:21:00.124Z,25.93
2022-11-15T09:22:20.540Z,25.42
2022-11-15T09:23:41.017Z,25.22
2022-11-15T09:25:01.176Z,26.78
2022-11-15T09:26:21.657Z,25.40
2022-11-15T09:27:42.385Z,25.59
2022-11-15T09:29:02.983Z,24.37
2022-11-15T09:30:24.521Z,25.31
2022-11-15T09:31:44.952Z,24.85
2022-11-15T09:33:10.506Z,24.04
2022-11-15T09:34:30.597Z,24.36
2022-11-15T09:35:51.019Z,24.24
2022-11-15T09:37:11.564Z,26.23
2022-11-15T09:38:33.286Z,24.81
2022-11-15T09:39:53.864Z,26.22
2022-11-15T09:41:32.216Z,26.53
2022-11-15T09:43:11.162Z,28.23
2022-11-15T09:45:05.181Z,27.23
2022-11-15T09:46:58.853Z,25.54
2022-11-15T09:48:22.365Z,24.77
2022-11-15T09:50:01.722Z,27.04
2022-11-15T09:51:19.877Z,26.60
2022-11-15T09:52:22.912Z,26.02
2022-11-15T09:55:15.006Z,25.42
2022-11-15T09:56:30.489Z,25.86
2022-11-15T09:58:01.875Z,27.04
2022-11-15T09:59:38.333Z,27.23
2022-11-15T10:00:49.848Z,26.02
2022-11-15T10:02:24.502Z,25.02
2022-11-15T10:03:34.348Z,25.84
2022-11-15T10:04:40.556Z,24.35
2022-11-15T10:05:48.417Z,23.58
2022-11-15T10:07:22.270Z,24.55
2022-11-15T10:08:41.661Z,24.98
2022-11-15T10:09:55.631Z,25.93
2022-11-15T10:11:37.779Z,26.77
2022-11-15T10:12:46.466Z,26.64
2022-11-15T10:13:51.640Z,25.33
2022-11-15T10:15:05.768Z,26.71
2022-11-15T10:16:31.715Z,26.67
2022-11-15T10:18:07.042Z,27.79
2022-11-15T10:19:29.408Z,25.31
2022-11-15T10:20:58.013Z,25.33
2022-11-15T10:22:28.152Z,25.15
2022-11-15T10:23:32.805Z,25.55
2022-11-15T10:24:46.486Z,25.12
2022-11-15T10:25:48.736Z,23.92
2022-11-15T10:26:51.525Z,24.30
2022-11-15T10:28:16.071Z,25.49
2022-11-15T10:29:26.464Z,25.35
2022-11-15T10:30:36.518Z,26.27
2022-11-15T10:31:42.570Z,25.67
2022-11-15T10:32:46.913Z,26.24
2022-11-15T10:33:50.212Z,25.80
2022-11-15T10:34:52.393Z,24.77
2022-11-15T10:36:12.591Z,25.75
2022-11-15T10:37:14.408Z,26.05
2022-11-15T10:38:16.195Z,25.39
2022-11-15T10:39:17.965Z,25.64
2022-11-15T10:40:23.403Z,25.41
2022-11-15T10:41:28.454Z,26.24
2022-11-15T10:42:30.597Z,25.87
2022-11-15T10:43:32.386Z,25.37
2022-11-15T10:44:44.028Z,26.36
2022-11-15T10:45:47.474Z,24.87
2022-11-15T10:46:55.395Z,24.40
2022-11-15T10:48:22.718Z,24.11
2022-11-15T10:49:30.007Z,25.38
2022-11-15T10:50:33.645Z,25.71
2022-11-15T10:51:44.553Z,26.54
2022-11-15T10:52:48.752Z,26.10
2022-11-15T10:53:52.837Z,25.82
2022-11-15T10:55:22.492Z,24.27
2022-11-15T10:56:27.292Z,24.33
2022-11-15T10:57:37.521Z,23.51
2022-11-15T10:58:44.535Z,24.03
2022-11-15T10:59:50.629Z,23.69
2022-11-15T11:00:55.008Z,24.46
2022-11-15T11:01:58.160Z,24.21
2022-11-15T11:03:04.746Z,23.61
2022-11-15T11:04:09.428Z,24.30
2022-11-15T11:05:41.829Z,24.37
2022-11-15T11:06:56.441Z,23.45
2022-11-15T11:08:02.219Z,23.66
2022-11-15T11:09:06.969Z,23.69
2022-11-15T11:10:49.737Z,23.00
2022-11-15T11:11:50.298Z,23.05
2022-11-15T11:12:52.049Z,24.28
2022-11-15T11:13:54.750Z,23.86
2022-11-15T11:14:56.779Z,24.31
2022-11-15T11:16:39.284Z,23.37
2022-11-15T11:18:16.380Z,22.44
2022-11-15T11:19:56.238Z,23.76
2022-11-15T11:21:12.860Z,25.91
2022-11-15T11:22:41.976Z,24.39
2022-11-15T11:24:00.680Z,23.33
2022-11-15T11:25:15.798Z,22.87
2022-11-15T11:26:57.175Z,23.75
2022-11-15T11:28:23.695Z,24.31
2022-11-15T11:29:39.744Z,23.29
2022-11-15T11:30:56.577Z,23.16
2022-11-15T11:32:27.494Z,23.94
2022-11-15T11:33:47.960Z,23.25
2022-11-15T11:35:04.995Z,22.87
2022-11-15T11:36:36.281Z,22.68
2022-11-15T11:37:48.691Z,23.39
2022-11-15T11:39:12.366Z,23.36
2022-11-15T11:40:44.365Z,21.78
2022-11-15T11:41:59.871Z,25.13
2022-11-15T11:43:18.999Z,23.90
2022-11-15T11:44:30.038Z,24.84
2022-11-15T11:45:37.741Z,25.20
2022-11-15T11:46:50.209Z,24.28
2022-11-15T11:48:27.307Z,24.06
2022-11-15T11:49:40.133Z,22.15
2022-11-15T11:50:46.060Z,21.09
2022-11-15T11:52:01.097Z,22.50
2022-11-15T11:53:20.829Z,22.00
2022-11-15T11:54:47.133Z,23.00
2022-11-15T11:55:54.739Z,22.99
2022-11-15T11:57:01.053Z,21.73
2022-11-15T11:58:14.257Z,22.85
2022-11-15T11:59:54.310Z,22.36
2022-11-15T12:01:18.975Z,21.88
2022-11-15T12:02:40.850Z,23.45
2022-11-15T12:03:52.487Z,21.16
2022-11-15T12:05:08.879Z,21.66
2022-11-15T12:06:34.233Z,20.60
2022-11-15T12:07:40.451Z,20.82
2022-11-15T12:09:13.459Z,21.68
2022-11-15T12:10:21.871Z,21.50
2022-11-15T12:11:52.819Z,20.84
2022-11-15T12:13:17.293Z,20.88
2022-11-15T12:14:27.236Z,21.03
2022-11-15T12:15:38.076Z,21.07
2022-11-15T12:16:43.798Z,20.84
2022-11-15T12:17:47.618Z,21.66
2022-11-15T12:18:53.984Z,20.61
2022-11-15T12:20:02.670Z,20.38
2022-11-15T12:21:15.778Z,20.49
2022-11-15T12:22:29.599Z,21.69
2022-11-15T12:23:47.218Z,21.64
2022-11-15T12:25:15.688Z,20.89
2022-11-15T12:26:27.262Z,20.93
2022-11-15T12:27:41.884Z,19.83
2022-11-15T12:29:07.479Z,19.11
2022-11-15T12:30:20.707Z,18.92
2022-11-15T12:31:34.953Z,19.71
2022-11-15T12:32:39.822Z,19.78
2022-11-15T12:33:45.517Z,19.14
2022-11-15T12:34:51.211Z,20.42
2022-11-15T12:36:02.237Z,20.01
2022-11-15T12:37:33.757Z,19.70
2022-11-15T12:39:11.757Z,20.12
2022-11-15T12:40:27.882Z,20.71
2022-11-15T12:41:32.537Z,20.74
2022-11-15T12:42:42.949Z,20.73
2022-11-15T12:43:47.149Z,20.31
2022-11-15T12:44:48.790Z,19.75
2022-11-15T12:45:50.512Z,19.20
2022-11-15T12:46:52.139Z,19.35
2022-11-15T12:47:54.500Z,19.83
2022-11-15T12:49:14.726Z,19.44
2022-11-15T12:50:16.688Z,19.12
2022-11-15T12:51:22.078Z,19.25
2022-11-15T12:52:23.818Z,19.37
2022-11-15T12:53:25.949Z,19.75
2022-11-15T12:54:30.032Z,19.26
2022-11-15T12:55:33.963Z,18.68
2022-11-15T12:56:35.769Z,19.27
2022-11-15T12:57:43.575Z,18.61
2022-11-15T12:59:03.491Z,18.87
2022-11-15T13:00:15.324Z,19.00
2022-11-15T13:01:32.820Z,19.49
2022-11-15T13:02:46.472Z,19.07
2022-11-15T13:04:33.387Z,19.35
2022-11-15T13:05:35.026Z,17.64
2022-11-15T13:06:47.446Z,18.59
2022-11-15T13:07:49.160Z,18.43
2022-11-15T13:08:51.891Z,18.84
2022-11-15T13:09:57.111Z,18.86
2022-11-15T13:10:58.921Z,18.54
2022-11-15T13:12:19.788Z,19.49
2022-11-15T13:13:45.483Z,19.52
2022-11-15T13:14:52.568Z,17.67
2022-11-15T13:15:59.497Z,18.83
2022-11-15T13:17:01.713Z,19.14
2022-11-15T13:18:41.064Z,19.56
2022-11-15T13:19:44.318Z,19.03
2022-11-15T13:20:46.109Z,18.34
2022-11-15T13:22:09.590Z,19.16
2022-11-15T13:23:16.583Z,19.33
2022-11-15T13:24:18.627Z,20.47
2022-11-15T13:25:38.811Z,21.52
2022-11-15T13:26:41.222Z,22.77
2022-11-15T13:27:43.003Z,23.71
2022-11-15T13:28:52.777Z,25.58
2022-11-15T13:29:54.772Z,25.32
2022-11-15T13:31:00.683Z,25.09
2022-11-15T13:32:02.499Z,25.55
2022-11-15T13:33:30.393Z,23.68
2022-11-15T13:34:51.105Z,22.88
2022-11-15T13:35:59.019Z,23.23
2022-11-15T13:37:01.991Z,23.69
2022-11-15T13:38:06.120Z,23.10
2022-11-15T13:39:28.055Z,23.36
2022-11-15T13:40:36.869Z,23.36
2022-11-15T13:41:49.267Z,22.83
2022-11-15T13:42:51.154Z,23.51
2022-11-15T13:43:55.101Z,24.19
2022-11-15T13:44:59.428Z,23.51
2022-11-15T13:46:21.285Z,22.38
2022-11-15T13:47:28.104Z,22.61
2022-11-15T13:48:31.173Z,22.75
2022-11-15T13:49:35.373Z,22.16
2022-11-15T13:50:40.537Z,22.47
2022-11-15T13:51:51.509Z,21.98
2022-11-15T13:52:58.537Z,22.37
2022-11-15T13:54:10.170Z,21.96
2022-11-15T13:55:18.716Z,22.36
2022-11-15T13:56:22.134Z,22.99
2022-11-15T13:57:28.875Z,23.12
2022-11-15T13:58:31.270Z,24.22
2022-11-15T13:59:54.751Z,25.90
2022-11-15T14:01:05.674Z,24.95
2022-11-15T14:02:20.403Z,23.32
2022-11-15T14:03:28.659Z,23.68
2022-11-15T14:04:34.941Z,24.08
2022-11-15T14:05:36.998Z,24.30
2022-11-15T14:06:48.810Z,25.12
2022-11-15T14:07:58.153Z,25.18
2022-11-15T14:09:01.849Z,24.41
2022-11-15T14:10:39.522Z,25.70
2022-11-15T14:11:52.462Z,25.09
2022-11-15T14:12:54.200Z,26.72
2022-11-15T14:14:14.178Z,26.12
2022-11-15T14:15:37.194Z,25.28
2022-11-15T14:16:40.090Z,27.23
2022-11-15T14:17:45.705Z,26.39
2022-11-15T14:18:54.195Z,27.60
2022-11-15T14:19:57.870Z,28.43
2022-11-15T14:21:09.927Z,30.41
2022-11-15T14:22:17.952Z,31.70
2022-11-15T14:23:25.290Z,33.01
2022-11-15T14:24:32.577Z,40.01
2022-11-15T14:25:37.482Z,45.93
2022-11-15T14:26:39.277Z,48.35
2022-11-15T14:27:42.336Z,48.91
2022-11-15T14:28:44.134Z,43.98
2022-11-15T14:29:45.864Z,42.69
2022-11-15T14:30:51.175Z,45.73
2022-11-15T14:31:54.647Z,45.67
2022-11-15T14:32:56.411Z,46.37
2022-11-15T14:33:58.281Z,44.06
2022-11-15T14:35:02.405Z,48.95
2022-11-15T14:36:21.939Z,47.68
2022-11-15T14:37:30.094Z,44.20
2022-11-15T14:38:32.393Z,51.87
2022-11-15T14:39:34.343Z,59.05
2022-11-15T14:40:36.133Z,60.40
2022-11-15T14:41:40.980Z,55.00
2022-11-15T14:42:45.385Z,54.09
2022-11-15T14:43:47.168Z,53.15
2022-11-15T14:44:49.194Z,54.64
2022-11-15T14:45:51.101Z,52.36
2022-11-15T14:46:52.947Z,53.84
2022-11-15T14:47:55.325Z,47.33
2022-11-15T14:48:57.673Z,46.55
2022-11-15T14:49:59.440Z,48.40
2022-11-15T14:51:01.236Z,49.09
2022-11-15T14:52:03.208Z,47.98
2022-11-15T14:53:06.431Z,46.22
2022-11-15T14:54:11.484Z,46.50
2022-11-15T14:55:20.695Z,47.13
2022-11-15T14:56:22.430Z,46.69
2022-11-15T14:57:24.363Z,47.93
2022-11-15T14:58:26.275Z,51.94
2022-11-15T14:59:28.018Z,51.96
2022-11-15T15:00:35.212Z,53.70
2022-11-15T15:01:37.479Z,59.83
2022-11-15T15:02:40.231Z,58.80
2022-11-15T15:03:42.259Z,56.94
2022-11-15T15:04:44.025Z,53.74
2022-11-15T15:05:45.814Z,51.60
2022-11-15T15:06:47.685Z,51.08
2022-11-15T15:07:50.834Z,50.55
2022-11-15T15:08:52.747Z,49.46
2022-11-15T15:10:02.750Z,49.77
2022-11-15T15:11:20.358Z,47.96
2022-11-15T15:12:24.324Z,46.95
2022-11-15T15:13:26.072Z,44.00
2022-11-15T15:14:28.152Z,43.99
2022-11-15T15:15:38.663Z,45.18
2022-11-15T15:16:40.429Z,43.24
2022-11-15T15:17:42.429Z,39.79
2022-11-15T15:18:44.545Z,39.21
2022-11-15T15:19:46.288Z,37.25
2022-11-15T15:20:57.699Z,36.97
2022-11-15T15:21:59.811Z,34.73
2022-11-15T15:23:01.607Z,35.34
2022-11-15T15:24:04.103Z,34.32
2022-11-15T15:25:21.484Z,33.19
2022-11-15T15:26:24.791Z,32.88
2022-11-15T15:27:26.598Z,32.44
2022-11-15T15:28:34.051Z,34.01
2022-11-15T15:29:36.910Z,34.97
2022-11-15T15:30:38.677Z,39.33
2022-11-15T15:31:40.435Z,36.10
2022-11-15T15:32:42.264Z,33.40
2022-11-15T15:33:44.637Z,49.61
2022-11-15T15:34:46.440Z,56.25
2022-11-15T15:35:48.419Z,41.86
2022-11-15T15:36:50.300Z,38.64
2022-11-15T15:37:52.379Z,35.32
2022-11-15T15:38:54.526Z,32.48
2022-11-15T15:39:58.062Z,33.04
2022-11-15T15:41:02.984Z,32.75
2022-11-15T15:42:05.009Z,31.92
2022-11-15T15:43:09.926Z,31.99
2022-11-15T15:44:11.931Z,31.23
2022-11-15T15:45:14.143Z,31.32
2022-11-15T15:46:18.547Z,32.05
2022-11-15T15:47:24.455Z,32.78
2022-11-15T15:48:26.197Z,33.06
2022-11-15T15:49:27.939Z,32.07
2022-11-15T15:50:33.971Z,31.63
2022-11-15T15:51:35.735Z,32.21
2022-11-15T15:52:37.493Z,33.25
2022-11-15T15:53:40.482Z,33.50
2022-11-15T15:54:42.996Z,34.52
2022-11-15T15:55:44.784Z,33.92
2022-11-15T15:56:46.666Z,33.51
2022-11-15T15:57:49.315Z,33.25
2022-11-15T15:58:53.286Z,36.23
2022-11-15T15:59:55.185Z,44.27
2022-11-15T16:00:57.057Z,41.93
2022-11-15T16:01:59.134Z,38.96
2022-11-15T16:03:01.141Z,39.85
2022-11-15T16:04:03.365Z,38.59
2022-11-15T16:05:05.949Z,40.72
2022-11-15T16:06:33.177Z,40.50
2022-11-15T16:07:35.211Z,35.34
2022-11-15T16:09:00.382Z,35.91
2022-11-15T16:10:02.509Z,35.19
2022-11-15T16:11:07.185Z,35.59
2022-11-15T16:12:09.048Z,35.57
2022-11-15T16:13:10.896Z,34.14
2022-11-15T16:14:12.774Z,34.72
2022-11-15T16:15:15.240Z,34.36
2022-11-15T16:16:22.832Z,34.76
2022-11-15T16:17:33.976Z,35.39
2022-11-15T16:18:36.271Z,37.82
2022-11-15T16:19:38.139Z,40.47
2022-11-15T16:20:50.459Z,40.42
2022-11-15T16:21:53.012Z,40.88
2022-11-15T16:22:54.769Z,42.83
2022-11-15T16:23:56.621Z,42.81
2022-11-15T16:24:58.388Z,43.55
2022-11-15T16:26:00.115Z,44.23
2022-11-15T16:27:02.543Z,42.24
2022-11-15T16:28:04.357Z,41.69
2022-11-15T16:29:07.984Z,43.83
2022-11-15T16:30:15.159Z,46.17
2022-11-15T16:31:19.336Z,44.06
2022-11-15T16:32:21.192Z,43.66
2022-11-15T16:33:23.103Z,44.32
2022-11-15T16:34:30.034Z,48.46
2022-11-15T16:35:32.855Z,47.81
2022-11-15T16:36:36.480Z,44.55
2022-11-15T16:37:40.779Z,48.50
2022-11-15T16:38:42.516Z,53.04
2022-11-15T16:39:44.238Z,47.22
2022-11-15T16:40:46.181Z,50.41
2022-11-15T16:41:47.895Z,56.38
2022-11-15T16:42:49.662Z,59.10
2022-11-15T16:43:51.658Z,62.35
2022-11-15T16:44:53.413Z,69.18
2022-11-15T16:45:55.547Z,71.87
2022-11-15T16:46:57.477Z,77.32
2022-11-15T16:47:59.210Z,64.67
2022-11-15T16:49:01.685Z,73.62
2022-11-15T16:50:03.634Z,65.46
2022-11-15T16:51:05.930Z,58.28
2022-11-15T16:52:07.782Z,55.44
2022-11-15T16:53:09.562Z,53.44
2022-11-15T16:54:11.525Z,51.54
2022-11-15T16:55:13.335Z,50.72
2022-11-15T16:56:23.834Z,64.64
2022-11-15T16:57:25.534Z,79.93
2022-11-15T16:58:27.516Z,76.09
2022-11-15T16:59:35.630Z,81.52
2022-11-15T17:00:39.889Z,92.76
2022-11-15T17:01:52.740Z,107.18
2022-11-15T17:02:56.001Z,77.27
2022-11-15T17:03:58.161Z,73.51
2022-11-15T17:04:59.965Z,73.81
2022-11-15T17:06:01.683Z,77.73
2022-11-15T17:07:03.532Z,107.79
2022-11-15T17:08:06.506Z,116.85
2022-11-15T17:09:15.318Z,110.75
2022-11-15T17:10:17.526Z,66.19
2022-11-15T17:11:22.153Z,57.47
2022-11-15T17:12:23.912Z,69.59
2022-11-15T17:13:25.719Z,72.92
2022-11-15T17:14:27.556Z,67.61
2022-11-15T17:15:29.518Z,61.50